Time;durP1;ratioP1;P1;durP2;ratioP2;P2;SDS_P1;SDS_P2;PMS_P1;PMS_P2;Temp;Humidity;BMP_temperature;BMP_pressure;BME280_temperature;BME280_humidity;BME280_pressure;Samples;Min_cycle;Max_cycle;Signal;HPM_P1;HPM_P2
2023/02/15 00:00:39;;;;;;;39.88;14.27;;;;;;;4.89;69.42;101912.91;12781105;23;20060;-65
2023/02/15 00:05:41;;;;;;;35.85;14.25;;;;;;;4.90;69.40;101901.31;12782470;23;20021;-64
2023/02/15 00:10:42;;;;;;;36.30;13.82;;;;;;;4.96;69.39;101894.72;12782526;23;20036;-66
2023/02/15 00:15:43;;;;;;;37.47;15.13;;;;;;;5.00;69.24;101884.72;12781587;23;20021;-66
2023/02/15 00:20:45;;;;;;;34.38;14.27;;;;;;;5.06;69.02;101881.66;12782856;23;20021;-64
2023/02/15 00:25:46;;;;;;;35.42;14.95;;;;;;;5.12;69.15;101883.91;12782021;23;20448;-67
2023/02/15 00:30:47;;;;;;;39.55;16.05;;;;;;;5.11;69.32;101875.03;12753821;23;20309;-66
2023/02/15 00:35:56;;;;;;;40.72;15.13;;;;;;;5.20;69.11;101875.41;12782227;23;20056;-66
2023/02/15 00:41:00;;;;;;;37.58;14.30;;;;;;;5.17;68.85;101876.44;12755719;23;20031;-64
2023/02/15 00:46:04;;;;;;;32.53;13.00;;;;;;;5.08;69.56;101877.06;12781520;23;20021;-65
2023/02/15 00:51:05;;;;;;;31.10;13.57;;;;;;;5.10;69.51;101872.50;12789390;23;20024;-65
2023/02/15 00:56:07;;;;;;;35.30;14.23;;;;;;;5.03;69.29;101873.84;12782796;23;20464;-65
2023/02/15 01:01:15;;;;;;;39.95;14.65;;;;;;;5.03;68.85;101872.03;12785831;23;20032;-65
2023/02/15 01:06:17;;;;;;;35.75;15.45;;;;;;;4.92;69.33;101870.09;12785339;23;20013;-64
2023/02/15 01:11:23;;;;;;;34.28;14.77;;;;;;;4.96;69.31;101862.75;12760280;23;20029;-66
2023/02/15 01:16:27;;;;;;;37.55;15.70;;;;;;;4.96;69.48;101866.28;12785162;23;20031;-67
2023/02/15 01:21:29;;;;;;;32.20;14.93;;;;;;;5.02;69.22;101862.34;12784939;23;20559;-65
2023/02/15 01:26:30;;;;;;;30.05;13.95;;;;;;;4.96;69.19;101855.59;12785930;23;20028;-64
2023/02/15 01:31:32;;;;;;;33.08;14.00;;;;;;;4.97;69.38;101846.66;12783105;23;20079;-66
2023/02/15 01:36:34;;;;;;;36.10;15.57;;;;;;;5.06;69.23;101839.84;12789954;23;20048;-65
2023/02/15 01:41:36;;;;;;;32.58;15.95;;;;;;;5.11;69.07;101840.38;12785945;23;20025;-66
2023/02/15 01:46:43;;;;;;;36.92;16.20;;;;;;;5.14;68.87;101831.34;12785545;23;20036;-66
2023/02/15 01:51:47;;;;;;;41.60;17.07;;;;;;;5.02;68.92;101834.84;12758825;23;20017;-66
2023/02/15 01:56:49;;;;;;;40.58;17.40;;;;;;;4.91;68.96;101832.88;12785560;23;20044;-67
2023/02/15 02:01:58;;;;;;;39.60;17.27;;;;;;;4.83;68.90;101825.41;12783826;23;20029;-66
2023/02/15 02:06:59;;;;;;;37.22;17.23;;;;;;;4.88;69.18;101835.78;12784289;23;20036;-66
2023/02/15 02:12:01;;;;;;;38.78;17.52;;;;;;;4.97;68.76;101828.00;12781735;23;20029;-64
2023/02/15 02:17:09;;;;;;;39.90;17.30;;;;;;;5.03;68.66;101820.56;12785185;23;20048;-63
2023/02/15 02:22:19;;;;;;;;;;;;;;;5.03;68.43;101805.41;12785019;23;20021;-66
2023/02/15 02:27:32;;;;;;;39.17;17.95;;;;;;;5.03;68.75;101807.22;12782726;23;19924;-65
2023/02/15 02:32:55;;;;;;;46.72;18.55;;;;;;;4.96;68.80;101806.81;12782067;23;20508;-66
2023/02/15 02:38:11;;;;;;;47.03;19.27;;;;;;;5.00;68.91;101802.97;12783431;23;20075;-64
2023/02/15 02:43:25;;;;;;;44.97;19.45;;;;;;;4.90;68.28;101794.75;12786530;23;20028;-66
2023/02/15 02:48:31;;;;;;;51.95;19.25;;;;;;;4.79;68.88;101804.41;12789138;23;20021;-67
2023/02/15 02:53:33;;;;;;;43.30;19.48;;;;;;;4.84;68.67;101802.28;12783797;23;20056;-67
2023/02/15 02:58:44;;;;;;;45.38;19.90;;;;;;;4.83;68.83;101800.56;12783304;23;20088;-64
2023/02/15 03:04:04;;;;;;;56.28;21.13;;;;;;;4.74;69.25;101794.06;12754346;23;20024;-64
2023/02/15 03:09:45;;;;;;;56.22;22.77;;;;;;;4.83;68.59;101776.59;12781428;23;20028;-66
2023/02/15 03:14:55;;;;;;;53.28;20.40;;;;;;;4.89;68.68;101773.53;12782262;23;20091;-63
2023/02/15 03:20:01;;;;;;;47.85;20.15;;;;;;;4.80;68.68;101768.81;12721317;23;20028;-64
2023/02/15 03:25:08;;;;;;;49.20;21.40;;;;;;;4.80;68.75;101772.34;12775139;23;20067;-62
2023/02/15 03:30:11;;;;;;;51.97;21.20;;;;;;;4.97;68.64;101768.53;12781186;23;20021;-66
2023/02/15 03:35:13;;;;;;;50.78;20.58;;;;;;;5.00;68.38;101775.47;12783007;23;20112;-63
2023/02/15 03:45:59;;;;;;;48.58;19.80;;;;;;;4.99;68.20;101765.75;12782290;23;20048;-65
2023/02/15 03:56:27;;;;;;;50.53;20.92;;;;;;;4.95;68.93;101771.28;12782663;23;20025;-66
2023/02/15 04:01:57;;;;;;;51.58;20.15;;;;;;;5.00;68.83;101775.47;12783725;23;20546;-65
2023/02/15 04:07:00;;;;;;;56.03;22.02;;;;;;;5.01;68.39;101764.69;12781245;23;20013;-65
2023/02/15 04:12:01;;;;;;;50.72;20.75;;;;;;;4.97;68.27;101763.19;12782433;23;20404;-67
2023/02/15 04:17:06;;;;;;;54.03;20.60;;;;;;;4.95;68.71;101755.28;12782719;23;20029;-66
2023/02/15 04:27:27;;;;;;;49.22;19.38;;;;;;;5.03;68.76;101753.94;12781988;23;20017;-65
2023/02/15 04:32:28;;;;;;;51.35;20.88;;;;;;;5.01;68.92;101753.19;12783311;23;20052;-63
2023/02/15 04:37:30;;;;;;;52.97;19.45;;;;;;;5.01;68.46;101755.84;12785020;23;20021;-65
2023/02/15 04:42:32;;;;;;;49.05;19.95;;;;;;;5.05;68.58;101750.19;12785153;23;20013;-64
2023/02/15 04:47:33;;;;;;;51.88;20.15;;;;;;;5.06;68.83;101751.06;12784027;23;20029;-61
2023/02/15 04:52:35;;;;;;;54.03;20.58;;;;;;;5.04;68.42;101737.84;12783052;23;20480;-64
2023/02/15 04:57:36;;;;;;;56.60;18.80;;;;;;;5.01;68.52;101745.19;12784071;23;20025;-64
2023/02/15 05:02:38;;;;;;;59.70;20.67;;;;;;;4.75;69.18;101737.16;12785258;23;20423;-64
2023/02/15 05:07:39;;;;;;;62.92;21.67;;;;;;;4.80;69.00;101734.19;12785097;23;20017;-64
2023/02/15 05:12:41;;;;;;;54.63;20.75;;;;;;;4.84;69.23;101744.53;12784001;23;20051;-64
2023/02/15 05:17:42;;;;;;;59.90;22.52;;;;;;;4.83;68.86;101740.16;12784549;23;20029;-63
2023/02/15 05:22:44;;;;;;;59.50;21.85;;;;;;;4.97;68.76;101725.88;12784239;23;20021;-64
2023/02/15 05:33:06;;;;;;;52.28;20.65;;;;;;;5.02;69.18;101717.59;12782338;23;20035;-64
2023/02/15 05:38:08;;;;;;;57.30;21.55;;;;;;;5.12;68.59;101721.31;12782883;23;20311;-67
2023/02/15 05:43:09;;;;;;;49.80;18.95;;;;;;;5.08;69.25;101722.50;12787467;23;20025;-65
2023/02/15 05:48:11;;;;;;;59.05;21.77;;;;;;;5.11;68.89;101723.13;12781284;23;20021;-63
2023/02/15 05:53:13;;;;;;;59.55;20.42;;;;;;;5.14;68.82;101722.91;12796111;23;20035;-65
2023/02/15 05:58:14;;;;;;;61.17;23.17;;;;;;;5.13;69.04;101725.69;12782806;23;20021;-66
2023/02/15 06:03:15;;;;;;;60.22;22.42;;;;;;;5.14;69.19;101728.25;12784265;23;20018;-63
2023/02/15 06:08:17;;;;;;;66.05;20.10;;;;;;;5.04;69.09;101724.50;12785146;23;20087;-66
2023/02/15 06:13:18;;;;;;;66.60;22.88;;;;;;;4.91;68.87;101742.31;12784056;23;20084;-65
2023/02/15 06:18:20;;;;;;;73.28;23.52;;;;;;;4.85;69.61;101743.56;12783104;23;20016;-65
2023/02/15 06:23:21;;;;;;;64.28;21.95;;;;;;;4.95;69.32;101738.47;12784425;23;20125;-65
2023/02/15 06:28:25;;;;;;;68.28;22.08;;;;;;;4.97;69.63;101737.38;12779650;23;20104;-62
2023/02/15 06:33:26;;;;;;;71.95;23.45;;;;;;;5.03;69.67;101749.44;12784880;23;20495;-64
2023/02/15 06:38:28;;;;;;;68.50;23.08;;;;;;;4.94;69.63;101744.75;12812918;23;20448;-63
2023/02/15 06:43:29;;;;;;;69.22;20.35;;;;;;;5.03;69.58;101751.25;12832026;23;20056;-62
2023/02/15 06:48:31;;;;;;;74.32;22.70;;;;;;;4.99;69.74;101752.44;12799099;23;20024;-63
2023/02/15 06:53:32;;;;;;;66.95;22.08;;;;;;;5.16;69.39;101752.13;12824886;23;20083;-64
2023/02/15 06:58:35;;;;;;;67.65;20.73;;;;;;;5.21;69.58;101749.97;12827449;23;20059;-63
2023/02/15 07:03:37;;;;;;;66.88;22.02;;;;;;;5.23;69.47;101760.53;12824716;23;20024;-64
2023/02/15 07:08:39;;;;;;;64.07;23.00;;;;;;;5.20;69.91;101766.94;12834021;23;20044;-63
2023/02/15 07:13:42;;;;;;;66.85;20.48;;;;;;;5.23;69.43;101774.72;12831054;23;20027;-65
2023/02/15 07:18:43;;;;;;;71.03;21.75;;;;;;;5.18;69.77;101774.19;12828967;23;20094;-63
2023/02/15 07:23:46;;;;;;;76.25;24.42;;;;;;;5.12;69.76;101770.16;12817152;23;20056;-89
2023/02/15 07:28:48;;;;;;;69.28;23.05;;;;;;;5.01;70.51;101769.16;12694323;23;20041;-90
2023/02/15 07:33:49;;;;;;;68.63;22.42;;;;;;;4.89;70.70;101763.72;12707171;23;20029;-91
2023/02/15 07:38:51;;;;;;;73.43;22.02;;;;;;;4.92;70.28;101765.34;12710529;23;20029;-89
2023/02/15 07:43:53;;;;;;;84.75;23.55;;;;;;;4.89;70.48;101763.72;12706506;23;20081;-89
2023/02/15 07:48:54;;;;;;;61.97;21.75;;;;;;;4.82;70.21;101757.13;12704499;23;20017;-89
2023/02/15 07:53:56;;;;;;;67.80;21.20;;;;;;;4.70;71.13;101757.91;12705945;23;20041;-89
2023/02/15 07:58:59;;;;;;;67.18;20.67;;;;;;;4.66;70.58;101749.31;12767424;23;20044;-89
2023/02/15 08:04:02;;;;;;;71.80;21.65;;;;;;;4.64;70.86;101753.00;12732139;23;20018;-87
2023/02/15 08:09:06;;;;;;;66.93;20.85;;;;;;;4.55;71.50;101749.16;12706494;23;20100;-89
2023/02/15 08:14:07;;;;;;;68.47;21.75;;;;;;;4.40;71.80;101753.66;12719030;23;20015;-62
2023/02/15 08:19:15;;;;;;;66.70;20.98;;;;;;;4.39;71.36;101748.47;12598974;23;20062;-61
2023/02/15 08:24:20;;;;;;;66.57;20.80;;;;;;;4.51;71.19;101752.97;12602359;23;20025;-62
2023/02/15 08:29:24;;;;;;;71.70;22.17;;;;;;;4.46;71.29;101742.63;12598412;23;20023;-62
2023/02/15 08:34:26;;;;;;;66.43;22.52;;;;;;;4.36;71.54;101741.53;12600112;23;20011;-63
2023/02/15 08:39:28;;;;;;;64.93;20.38;;;;;;;4.26;71.95;101745.75;12599086;23;20077;-62
2023/02/15 08:44:29;;;;;;;63.70;19.77;;;;;;;4.14;72.05;101742.94;12599014;23;20027;-64
2023/02/15 08:49:31;;;;;;;53.53;16.73;;;;;;;4.16;72.08;101741.03;12600181;23;20013;-63
2023/02/15 08:54:33;;;;;;;53.90;16.35;;;;;;;4.03;72.09;101737.47;12601443;23;20014;-63
2023/02/15 08:59:34;;;;;;;46.20;16.13;;;;;;;4.02;72.35;101730.44;12601200;23;20067;-63
2023/02/15 09:04:35;;;;;;;48.60;16.20;;;;;;;4.01;72.07;101733.19;12574839;23;20011;-63
2023/02/15 09:09:37;;;;;;;49.35;15.95;;;;;;;3.93;72.34;101726.56;12598715;23;20002;-62
2023/02/15 09:14:38;;;;;;;42.92;15.48;;;;;;;3.88;72.34;101718.03;12609186;23;20037;-61
2023/02/15 09:19:39;;;;;;;51.70;18.08;;;;;;;4.00;72.40;101716.38;12634345;23;20046;-63
2023/02/15 09:24:41;;;;;;;49.88;15.38;;;;;;;4.12;72.03;101718.22;12632483;23;20037;-62
2023/02/15 09:29:42;;;;;;;44.72;15.27;;;;;;;3.94;72.37;101716.78;12653884;23;20026;-62
2023/02/15 09:34:43;;;;;;;40.70;14.10;;;;;;;3.91;72.26;101717.84;12656966;23;20017;-62
2023/02/15 09:39:46;;;;;;;41.45;15.05;;;;;;;3.97;72.74;101706.78;12633521;23;20018;-63
2023/02/15 09:45:24;;;;;;;41.00;15.23;;;;;;;4.11;72.09;101710.38;12634107;23;20034;-66
2023/02/15 09:50:43;;;;;;;39.80;16.42;;;;;;;3.90;72.29;101718.78;12635506;23;20019;-65
2023/02/15 09:56:00;;;;;;;40.90;15.55;;;;;;;4.08;72.31;101718.53;12633135;23;20022;-63
2023/02/15 10:01:16;;;;;;;34.70;14.18;;;;;;;3.97;72.29;101711.28;12633383;23;20034;-63
2023/02/15 10:06:48;;;;;;;36.70;15.40;;;;;;;3.96;72.31;101718.38;12610132;23;20025;-63
2023/02/15 10:12:10;;;;;;;31.85;14.73;;;;;;;4.00;71.83;101721.69;12634266;23;20026;-63
2023/02/15 10:17:52;;;;;;;29.55;13.15;;;;;;;4.13;72.08;101729.75;12636849;23;20026;-62
2023/02/15 10:23:06;;;;;;;37.38;14.23;;;;;;;4.15;71.73;101726.03;12640374;23;20022;-63
2023/02/15 10:28:26;;;;;;;29.52;13.15;;;;;;;4.31;71.74;101731.19;12636842;23;20026;-64
2023/02/15 10:33:38;;;;;;;32.15;13.57;;;;;;;4.56;71.25;101725.09;12639489;23;20029;-63
2023/02/15 10:39:01;;;;;;;33.20;14.25;;;;;;;4.54;71.13;101719.03;12639133;23;20045;-65
2023/02/15 10:44:25;;;;;;;42.33;16.65;;;;;;;4.28;71.53;101718.06;12639373;23;20035;-62
2023/02/15 10:49:40;;;;;;;33.30;13.90;;;;;;;4.21;71.34;101714.13;12640836;23;20026;-63
2023/02/15 10:54:55;;;;;;;34.88;15.55;;;;;;;4.45;71.40;101710.78;12636673;23;20029;-63
2023/02/15 11:00:05;;;;;;;34.35;14.38;;;;;;;4.34;71.26;101711.50;12637722;23;20030;-65
2023/02/15 11:05:31;;;;;;;35.83;14.43;;;;;;;4.41;71.13;101706.63;12646060;23;20026;-65
2023/02/15 11:10:42;;;;;;;40.60;16.70;;;;;;;4.55;70.75;101704.72;12638048;23;20065;-65
2023/02/15 11:16:25;;;;;;;41.47;16.35;;;;;;;4.45;71.10;101701.00;12629408;23;20054;-62
2023/02/15 11:21:36;;;;;;;45.08;17.73;;;;;;;4.56;71.14;101698.47;12525215;23;20054;-63
2023/02/15 11:26:56;;;;;;;39.55;17.35;;;;;;;4.67;70.93;101702.22;12580801;23;20280;-62
2023/02/15 11:32:24;;;;;;;40.20;16.95;;;;;;;4.62;70.61;101696.31;12577604;23;20037;-62
2023/02/15 11:37:35;;;;;;;;;;;;;;;4.65;70.84;101691.66;12579063;23;20078;-62
2023/02/15 11:42:37;;;;;;;37.78;15.85;;;;;;;4.84;70.61;101683.25;12577067;23;19921;-64
2023/02/15 11:47:38;;;;;;;40.10;16.50;;;;;;;4.81;70.58;101682.63;12582028;23;20053;-62
2023/02/15 11:52:39;;;;;;;36.92;15.40;;;;;;;4.93;70.49;101677.28;12577609;23;20135;-65
2023/02/15 11:57:47;;;;;;;36.17;16.20;;;;;;;4.90;69.93;101674.00;12569310;23;20023;-66
2023/02/15 12:02:53;;;;;;;32.08;14.57;;;;;;;4.87;70.44;101664.38;12565340;23;20201;-65
2023/02/15 12:08:21;;;;;;;39.20;16.58;;;;;;;5.05;70.25;101658.75;12575481;23;20011;-62
2023/02/15 12:13:23;;;;;;;28.98;10.98;;;;;;;5.06;69.81;101649.81;12591720;23;20088;-60
2023/02/15 12:18:41;;;;;;;37.45;16.20;;;;;;;5.22;69.88;101653.06;12580600;23;20027;-63
2023/02/15 12:23:49;;;;;;;35.63;15.93;;;;;;;5.37;69.17;101648.44;12571026;23;20023;-62
2023/02/15 12:28:52;;;;;;;43.20;17.75;;;;;;;5.45;69.46;101643.44;12557194;23;20029;-62
2023/02/15 12:33:57;;;;;;;41.95;17.58;;;;;;;5.53;69.46;101641.06;12569157;23;20027;-65
2023/02/15 12:39:07;;;;;;;40.55;17.35;;;;;;;5.45;69.16;101631.91;12553502;23;20027;-61
2023/02/15 12:44:19;;;;;;;45.42;17.80;;;;;;;5.31;69.68;101624.91;12575041;23;20106;-62
2023/02/15 12:49:21;;;;;;;47.15;17.70;;;;;;;5.32;69.81;101616.78;12569149;23;20059;-61
2023/02/15 12:54:22;;;;;;;52.63;19.42;;;;;;;5.38;69.22;101614.66;12556372;23;20057;-62
2023/02/15 12:59:24;;;;;;;51.92;19.35;;;;;;;5.42;69.04;101616.13;12582323;23;20055;-63
2023/02/15 13:04:29;;;;;;;47.30;19.40;;;;;;;5.68;68.84;101596.41;12581740;23;20022;-61
2023/02/15 13:09:31;;;;;;;48.47;19.02;;;;;;;5.68;69.10;101600.88;12563093;23;20026;-61
2023/02/15 13:14:33;;;;;;;48.63;19.10;;;;;;;5.60;68.68;101587.28;12591123;23;20042;-62
2023/02/15 13:19:39;;;;;;;50.90;21.63;;;;;;;5.69;68.81;101578.59;12698594;23;20070;-60
2023/02/15 13:24:49;;;;;;;52.13;21.73;;;;;;;5.67;68.11;101565.38;12691332;23;20076;-62
2023/02/15 13:29:58;;;;;;;54.15;21.73;;;;;;;5.58;68.39;101566.03;12694125;23;20092;-62
2023/02/15 13:35:02;;;;;;;54.58;21.15;;;;;;;5.68;68.14;101561.72;12695438;23;20037;-62
2023/02/15 13:40:24;;;;;;;54.53;22.45;;;;;;;5.61;68.56;101554.28;12697014;23;20022;-60
2023/02/15 13:45:54;;;;;;;57.60;22.73;;;;;;;5.53;68.91;101553.06;12691155;23;20022;-63
2023/02/15 13:51:18;;;;;;;51.65;21.23;;;;;;;5.48;68.65;101554.34;12688014;23;20080;-62
2023/02/15 13:56:32;;;;;;;63.63;23.88;;;;;;;5.46;68.48;101537.63;12671931;23;20053;-62
2023/02/15 14:01:55;;;;;;;57.72;22.83;;;;;;;5.47;69.35;101540.19;12650319;23;20014;-60
2023/02/15 14:07:21;;;;;;;59.15;23.92;;;;;;;5.67;68.34;101538.69;12676877;23;20034;-61
2023/02/15 14:12:37;;;;;;;63.63;24.60;;;;;;;5.91;68.69;101530.66;12655993;23;20469;-60
2023/02/15 14:17:55;;;;;;;58.47;23.15;;;;;;;5.89;68.66;101524.59;12656885;23;20026;-63
2023/02/15 14:23:29;;;;;;;63.20;23.50;;;;;;;5.93;68.97;101519.88;12643746;23;20107;-62
2023/02/15 14:28:58;;;;;;;58.63;23.13;;;;;;;6.00;68.40;101513.09;12647459;23;20022;-62
2023/02/15 14:33:59;;;;;;;60.00;24.85;;;;;;;5.99;68.01;101515.91;12643812;23;20002;-63
2023/02/15 14:45:04;;;;;;;62.80;24.00;;;;;;;5.99;68.19;101510.56;12621742;23;20077;-63
2023/02/15 14:50:30;;;;;;;73.07;27.88;;;;;;;5.96;68.62;101506.31;12651075;23;20115;-64
2023/02/15 14:55:36;;;;;;;63.13;27.52;;;;;;;5.98;68.28;101501.69;12646389;23;20014;-64
2023/02/15 15:00:39;;;;;;;66.00;26.27;;;;;;;6.07;68.23;101494.81;12613729;23;20010;-64
2023/02/15 15:05:56;;;;;;;69.60;26.98;;;;;;;5.96;67.64;101495.63;12642337;23;20019;-64
2023/02/15 15:11:26;;;;;;;72.40;25.08;;;;;;;5.90;68.72;101496.91;12642378;23;20022;-64
2023/02/15 15:16:48;;;;;;;66.70;26.35;;;;;;;5.80;68.47;101500.41;12645457;23;20030;-63
2023/02/15 15:21:49;;;;;;;72.33;27.10;;;;;;;5.92;68.63;101499.47;12643565;23;20006;-62
2023/02/15 15:27:29;;;;;;;69.32;25.15;;;;;;;6.09;67.76;101493.72;12649639;23;20006;-62
2023/02/15 15:32:34;;;;;;;66.43;26.65;;;;;;;6.19;67.50;101491.19;12643934;23;20014;-64
2023/02/15 15:37:51;;;;;;;67.22;25.88;;;;;;;6.11;67.59;101497.13;12632749;23;20591;-61
2023/02/15 15:43:05;;;;;;;59.87;24.87;;;;;;;6.08;67.96;101494.72;12625811;23;20050;-61
2023/02/15 15:48:28;;;;;;;59.38;25.95;;;;;;;6.08;67.87;101499.16;12628228;23;20041;-63
2023/02/15 15:53:39;;;;;;;69.93;26.08;;;;;;;6.00;68.18;101499.75;12651499;23;20049;-64
2023/02/15 15:58:46;;;;;;;67.28;26.17;;;;;;;5.98;68.13;101485.69;12651262;23;20081;-63
2023/02/15 16:03:52;;;;;;;70.20;26.20;;;;;;;5.98;67.88;101483.03;12651898;23;20010;-63
2023/02/15 16:08:54;;;;;;;69.15;28.13;;;;;;;5.92;68.31;101486.13;12657573;23;20041;-62
2023/02/15 16:13:56;;;;;;;69.78;25.45;;;;;;;5.93;68.28;101485.19;12650186;23;20086;-62
2023/02/15 16:18:59;;;;;;;61.92;24.33;;;;;;;5.93;68.14;101480.69;12645001;23;20240;-62
2023/02/15 16:24:30;;;;;;;63.33;27.83;;;;;;;5.83;68.50;101489.53;12613428;23;20082;-61
2023/02/15 16:29:33;;;;;;;71.53;26.98;;;;;;;5.66;68.62;101475.63;12661820;23;20021;-62
2023/02/15 16:34:34;;;;;;;63.00;24.75;;;;;;;5.61;68.33;101487.59;12653620;23;20136;-63
2023/02/15 16:39:41;;;;;;;69.13;26.83;;;;;;;5.58;68.78;101499.38;12653076;23;20011;-62
2023/02/15 16:44:44;;;;;;;77.78;27.73;;;;;;;5.63;68.39;101491.88;12650318;23;20041;-63
2023/02/15 16:49:49;;;;;;;81.32;27.52;;;;;;;5.64;68.99;101493.56;12649766;23;20070;-62
2023/02/15 16:54:57;;;;;;;74.43;26.90;;;;;;;5.74;68.61;101488.38;12608875;23;20050;-62
2023/02/15 17:00:08;;;;;;;84.63;29.15;;;;;;;5.57;68.53;101487.00;12569631;23;20030;-64
2023/02/15 17:05:13;;;;;;;81.13;28.92;;;;;;;5.60;68.88;101491.25;12595413;23;20090;-65
2023/02/15 17:10:28;;;;;;;87.57;32.20;;;;;;;5.60;69.16;101489.44;12592929;23;20050;-63
2023/02/15 17:15:35;;;;;;;78.72;30.75;;;;;;;5.61;69.19;101501.81;12591267;23;20054;-63
2023/02/15 17:20:41;;;;;;;82.05;31.90;;;;;;;5.59;69.50;101503.75;12594082;23;20093;-63
2023/02/15 17:25:43;;;;;;;73.30;28.50;;;;;;;5.52;69.16;101507.81;12593508;23;20049;-63
2023/02/15 17:30:46;;;;;;;79.22;30.63;;;;;;;5.45;69.16;101509.22;12592539;23;20102;-62
2023/02/15 17:36:11;;;;;;;77.20;30.50;;;;;;;5.40;69.49;101508.75;12568394;23;20030;-62
2023/02/15 17:41:12;;;;;;;71.90;30.02;;;;;;;5.28;70.29;101511.34;12592096;23;20022;-64
2023/02/15 17:46:18;;;;;;;68.88;27.63;;;;;;;5.40;69.48;101511.41;12592768;23;20061;-63
2023/02/15 17:51:20;;;;;;;63.45;26.52;;;;;;;5.26;69.83;101510.59;12593116;23;20014;-63
2023/02/15 17:56:22;;;;;;;60.72;26.85;;;;;;;5.19;70.43;101519.16;12594035;23;20030;-63
2023/02/15 18:12:31;;;;;;;70.30;27.08;;;;;;;5.11;69.89;101487.75;12595189;23;20055;-63
2023/02/15 18:17:37;;;;;;;67.25;26.65;;;;;;;4.91;70.58;101489.19;12595231;23;20026;-62
2023/02/15 18:22:39;;;;;;;67.43;23.87;;;;;;;5.05;70.35;101496.19;12594274;23;20030;-62
2023/02/15 18:27:40;;;;;;;69.05;26.77;;;;;;;4.96;70.80;101513.69;12594813;23;20435;-63
2023/02/15 18:32:44;;;;;;;73.97;26.90;;;;;;;4.91;70.52;101507.84;12594746;23;20393;-63
2023/02/15 18:37:47;;;;;;;63.42;26.00;;;;;;;4.99;70.43;101497.47;12592892;23;20026;-63
2023/02/15 18:42:48;;;;;;;65.05;26.67;;;;;;;5.04;70.80;101499.81;12595360;23;20033;-62
2023/02/15 18:47:50;;;;;;;63.05;25.38;;;;;;;5.04;70.25;101489.16;12569465;23;20058;-63
2023/02/15 18:52:52;;;;;;;61.13;24.98;;;;;;;5.09;70.66;101497.66;12591586;23;20509;-63
2023/02/15 18:57:57;;;;;;;60.40;26.88;;;;;;;5.16;70.39;101498.94;12573100;23;20022;-62
2023/02/15 19:03:03;;;;;;;63.40;26.05;;;;;;;5.08;70.90;101502.16;12603200;23;20026;-61
2023/02/15 19:08:15;;;;;;;62.47;25.67;;;;;;;4.97;70.96;101500.25;12595197;23;20022;-60
2023/02/15 19:13:17;;;;;;;62.72;24.83;;;;;;;5.01;70.68;101506.22;12599280;23;20030;-61
2023/02/15 19:18:18;;;;;;;62.13;25.77;;;;;;;5.01;70.95;101500.03;12593776;23;20113;-61
2023/02/15 19:23:22;;;;;;;63.65;27.25;;;;;;;5.14;70.32;101499.03;12595286;23;20022;-62
2023/02/15 19:28:29;;;;;;;69.30;27.70;;;;;;;5.01;70.57;101492.03;12594905;23;20537;-61
2023/02/15 19:33:31;;;;;;;;;;;;;;;5.01;70.72;101500.88;12595809;23;20022;-62
2023/02/15 19:38:36;;;;;;;71.57;27.42;;;;;;;5.00;70.97;101504.53;12583720;23;19980;-62
2023/02/15 19:43:37;;;;;;;68.32;28.10;;;;;;;4.96;71.03;101505.72;12597194;23;20024;-62
2023/02/15 19:48:39;;;;;;;73.28;28.65;;;;;;;4.97;70.73;101505.56;12574361;23;20073;-61
2023/02/15 19:53:40;;;;;;;78.00;28.88;;;;;;;4.99;71.13;101501.97;12592904;23;20050;-62
2023/02/15 19:58:42;;;;;;;73.78;27.52;;;;;;;4.96;71.29;101497.72;12593023;23;20350;-61
2023/02/15 20:03:43;;;;;;;75.03;30.13;;;;;;;5.02;71.05;101510.59;12592457;23;20031;-63
2023/02/15 20:08:45;;;;;;;83.43;29.02;;;;;;;5.09;70.54;101518.97;12602024;23;20061;-63
2023/02/15 20:13:46;;;;;;;77.80;32.08;;;;;;;5.10;70.07;101510.88;12592733;23;20393;-65
2023/02/15 20:18:47;;;;;;;79.32;31.30;;;;;;;4.97;71.09;101510.91;12566075;23;20061;-64
2023/02/15 20:23:49;;;;;;;88.53;30.48;;;;;;;5.03;70.97;101522.94;12591070;23;20089;-63
2023/02/15 20:28:51;;;;;;;75.00;28.48;;;;;;;5.02;71.23;101512.41;12590546;23;20073;-62
2023/02/15 20:33:52;;;;;;;80.30;29.98;;;;;;;5.10;71.02;101508.22;12565914;23;20794;-62
2023/02/15 20:38:56;;;;;;;72.68;29.90;;;;;;;5.14;70.94;101506.19;12565463;23;20057;-64
2023/02/15 20:43:57;;;;;;;86.95;30.20;;;;;;;5.10;70.90;101510.88;12592492;23;20042;-64
2023/02/15 20:48:59;;;;;;;79.28;29.45;;;;;;;5.09;70.65;101511.81;12594319;23;20081;-61
2023/02/15 20:54:00;;;;;;;89.85;31.02;;;;;;;5.06;70.76;101509.41;12596199;23;20026;-61
2023/02/15 20:59:05;;;;;;;83.97;30.75;;;;;;;5.04;70.76;101513.16;12596917;23;20027;-61
2023/02/15 21:04:09;;;;;;;81.45;30.05;;;;;;;5.02;70.90;101507.09;12595247;23;20029;-61
2023/02/15 21:09:13;;;;;;;85.28;30.85;;;;;;;5.06;71.08;101498.75;12594376;23;20395;-62
2023/02/15 21:14:24;;;;;;;84.97;31.33;;;;;;;5.12;70.66;101500.97;12597355;23;20030;-61
2023/02/15 21:19:26;;;;;;;81.32;29.63;;;;;;;5.23;70.40;101502.81;12596594;23;20053;-62
2023/02/15 21:24:28;;;;;;;88.07;30.25;;;;;;;5.19;70.82;101496.00;12598643;23;20034;-64
2023/02/15 21:29:29;;;;;;;72.25;27.02;;;;;;;5.10;70.65;101502.03;12596205;23;20030;-61
2023/02/15 21:34:31;;;;;;;82.18;31.73;;;;;;;5.13;71.05;101509.78;12598631;23;20085;-61
2023/02/15 21:39:35;;;;;;;74.88;27.42;;;;;;;5.13;71.54;101509.78;12598799;23;20018;-62
2023/02/15 21:49:57;;;;;;;80.57;27.90;;;;;;;5.03;71.16;101514.94;12598608;23;20031;-63
2023/02/15 21:54:58;;;;;;;86.40;30.58;;;;;;;5.08;71.64;101512.81;12596642;23;20398;-62
2023/02/15 22:00:01;;;;;;;74.78;28.55;;;;;;;5.14;70.76;101516.84;12595958;23;20034;-65
2023/02/15 22:05:12;;;;;;;78.13;28.13;;;;;;;5.12;71.17;101516.09;12598229;23;20034;-61
2023/02/15 22:10:13;;;;;;;80.82;29.65;;;;;;;5.02;71.32;101507.94;12597542;23;20045;-62
2023/02/15 22:15:23;;;;;;;82.10;28.15;;;;;;;5.11;70.75;101517.91;12597385;23;20034;-62
2023/02/15 22:20:25;;;;;;;79.70;30.17;;;;;;;5.13;71.21;101509.78;12597371;23;20482;-61
2023/02/15 22:25:26;;;;;;;82.55;29.38;;;;;;;5.13;70.90;101494.69;12596399;23;20041;-62
2023/02/15 22:30:31;;;;;;;84.15;28.80;;;;;;;5.15;71.00;101497.22;12596195;23;20458;-63
2023/02/15 22:35:35;;;;;;;77.30;27.02;;;;;;;4.91;71.48;101510.50;12596803;23;20144;-62
2023/02/15 22:40:36;;;;;;;88.75;28.83;;;;;;;4.86;71.41;101512.63;12598515;23;20026;-62
2023/02/15 22:45:38;;;;;;;90.10;29.33;;;;;;;4.89;71.43;101507.94;12596388;23;20061;-62
2023/02/15 22:50:39;;;;;;;82.43;29.17;;;;;;;4.90;71.63;101500.81;12596874;23;20030;-62
2023/02/15 22:55:41;;;;;;;90.10;30.45;;;;;;;4.90;71.61;101507.00;12597754;23;20030;-62
2023/02/15 23:00:43;;;;;;;79.82;28.73;;;;;;;4.80;72.01;101503.31;12596413;23;20061;-62
2023/02/15 23:05:45;;;;;;;91.25;30.33;;;;;;;4.84;71.41;101499.44;12596652;23;20089;-62
2023/02/15 23:10:52;;;;;;;89.13;29.52;;;;;;;4.92;71.25;101491.75;12596602;23;20030;-63
2023/02/15 23:16:00;;;;;;;72.78;22.30;;;;;;;4.94;71.52;101492.50;12596073;23;20438;-62
2023/02/15 23:21:14;;;;;;;95.45;29.67;;;;;;;4.98;71.09;101490.47;12603267;23;20018;-63
2023/02/15 23:26:21;;;;;;;92.32;31.63;;;;;;;5.08;71.55;101479.97;12595826;23;20026;-63
2023/02/15 23:31:27;;;;;;;98.90;32.45;;;;;;;5.16;70.88;101483.78;12598309;23;20026;-62
2023/02/15 23:36:34;;;;;;;98.55;30.67;;;;;;;5.09;71.28;101474.53;12594520;23;20461;-62
2023/02/15 23:41:35;;;;;;;97.35;33.47;;;;;;;5.07;71.35;101480.94;12596286;23;20415;-63
2023/02/15 23:46:45;;;;;;;86.50;29.60;;;;;;;5.00;71.91;101493.88;12594555;23;20030;-61
2023/02/15 23:51:49;;;;;;;88.20;29.45;;;;;;;5.09;71.65;101481.66;12596039;23;20023;-62
2023/02/15 23:56:56;;;;;;;96.38;31.08;;;;;;;5.04;71.60;101479.34;12595479;23;20026;-62
